sensor_id;sensor_type;location;lat;lon;timestamp;temperature;humidity
19813;DHT22;10066;48.108;11.448;2024-03-25T00:01:49;3.80;99.90
19813;DHT22;10066;48.108;11.448;2024-03-25T00:04:14;3.80;99.90
19813;DHT22;10066;48.108;11.448;2024-03-25T00:06:41;3.80;99.90
19813;DHT22;10066;48.108;11.448;2024-03-25T00:09:07;3.80;99.90
19813;DHT22;10066;48.108;11.448;2024-03-25T00:11:39;3.80;99.90
19813;DHT22;10066;48.108;11.448;2024-03-25T00:14:05;3.80;99.90
19813;DHT22;10066;48.108;11.448;2024-03-25T00:16:32;3.90;99.90
19813;DHT22;10066;48.108;11.448;2024-03-25T00:18:59;3.90;99.90
19813;DHT22;10066;48.108;11.448;2024-03-25T00:21:27;3.90;99.90
19813;DHT22;10066;48.108;11.448;2024-03-25T00:23:52;3.90;99.90
19813;DHT22;10066;48.108;11.448;2024-03-25T00:26:21;3.90;99.90
19813;DHT22;10066;48.108;11.448;2024-03-25T00:28:47;3.80;99.90
19813;DHT22;10066;48.108;11.448;2024-03-25T00:31:14;3.90;99.90
19813;DHT22;10066;48.108;11.448;2024-03-25T00:33:42;3.80;99.90
19813;DHT22;10066;48.108;11.448;2024-03-25T00:36:10;3.80;99.90
19813;DHT22;10066;48.108;11.448;2024-03-25T00:38:36;3.80;99.90
19813;DHT22;10066;48.108;11.448;2024-03-25T00:41:03;3.80;99.90
19813;DHT22;10066;48.108;11.448;2024-03-25T00:43:29;3.70;99.90
19813;DHT22;10066;48.108;11.448;2024-03-25T00:45:56;3.70;99.90
19813;DHT22;10066;48.108;11.448;2024-03-25T00:48:22;3.70;99.90
19813;DHT22;10066;48.108;11.448;2024-03-25T00:50:49;3.70;99.90
19813;DHT22;10066;48.108;11.448;2024-03-25T00:53:17;3.70;99.90
19813;DHT22;10066;48.108;11.448;2024-03-25T00:55:43;3.70;99.90
19813;DHT22;10066;48.108;11.448;2024-03-25T00:58:09;3.70;99.90
19813;DHT22;10066;48.108;11.448;2024-03-25T01:00:36;3.70;99.90
19813;DHT22;10066;48.108;11.448;2024-03-25T01:03:02;3.70;99.90
19813;DHT22;10066;48.108;11.448;2024-03-25T01:05:29;3.70;99.90
19813;DHT22;10066;48.108;11.448;2024-03-25T01:07:55;3.70;99.90
19813;DHT22;10066;48.108;11.448;2024-03-25T01:10:24;3.60;99.90
19813;DHT22;10066;48.108;11.448;2024-03-25T01:12:50;3.50;99.90
19813;DHT22;10066;48.108;11.448;2024-03-25T01:15:17;3.50;99.90
19813;DHT22;10066;48.108;11.448;2024-03-25T01:17:43;3.40;99.90
19813;DHT22;10066;48.108;11.448;2024-03-25T01:20:10;3.30;99.90
19813;DHT22;10066;48.108;11.448;2024-03-25T01:22:36;3.30;99.90
19813;DHT22;10066;48.108;11.448;2024-03-25T01:25:03;3.30;99.90
19813;DHT22;10066;48.108;11.448;2024-03-25T01:27:30;3.20;99.90
19813;DHT22;10066;48.108;11.448;2024-03-25T01:29:57;3.30;99.90
19813;DHT22;10066;48.108;11.448;2024-03-25T01:32:23;3.30;99.90
19813;DHT22;10066;48.108;11.448;2024-03-25T01:34:53;3.30;99.90
19813;DHT22;10066;48.108;11.448;2024-03-25T01:37:19;3.30;99.90
19813;DHT22;10066;48.108;11.448;2024-03-25T01:39:47;3.40;99.90
19813;DHT22;10066;48.108;11.448;2024-03-25T01:42:13;3.40;99.90
19813;DHT22;10066;48.108;11.448;2024-03-25T01:44:42;3.40;99.90
19813;DHT22;10066;48.108;11.448;2024-03-25T01:47:08;3.40;99.90
19813;DHT22;10066;48.108;11.448;2024-03-25T01:49:35;3.50;99.90
19813;DHT22;10066;48.108;11.448;2024-03-25T01:52:00;3.50;99.90
19813;DHT22;10066;48.108;11.448;2024-03-25T01:54:31;3.50;99.90
19813;DHT22;10066;48.108;11.448;2024-03-25T01:56:57;3.50;99.90
19813;DHT22;10066;48.108;11.448;2024-03-25T01:59:24;3.50;99.90
19813;DHT22;10066;48.108;11.448;2024-03-25T02:01:52;3.60;99.90
19813;DHT22;10066;48.108;11.448;2024-03-25T02:04:20;3.60;99.90
19813;DHT22;10066;48.108;11.448;2024-03-25T02:06:46;3.60;99.90
19813;DHT22;10066;48.108;11.448;2024-03-25T02:09:13;3.60;99.90
19813;DHT22;10066;48.108;11.448;2024-03-25T02:11:39;3.60;99.90
19813;DHT22;10066;48.108;11.448;2024-03-25T02:14:06;3.60;99.90
19813;DHT22;10066;48.108;11.448;2024-03-25T02:16:32;3.60;99.90
19813;DHT22;10066;48.108;11.448;2024-03-25T02:19:01;3.60;99.90
19813;DHT22;10066;48.108;11.448;2024-03-25T02:21:27;3.60;99.90
19813;DHT22;10066;48.108;11.448;2024-03-25T02:23:54;3.50;99.90
19813;DHT22;10066;48.108;11.448;2024-03-25T02:26:23;3.50;99.90
19813;DHT22;10066;48.108;11.448;2024-03-25T02:28:50;3.50;99.90
19813;DHT22;10066;48.108;11.448;2024-03-25T02:31:16;3.50;99.90
19813;DHT22;10066;48.108;11.448;2024-03-25T02:33:43;3.40;99.90
19813;DHT22;10066;48.108;11.448;2024-03-25T02:36:09;3.40;99.90
19813;DHT22;10066;48.108;11.448;2024-03-25T02:38:36;3.40;99.90
19813;DHT22;10066;48.108;11.448;2024-03-25T02:41:02;3.50;99.90
19813;DHT22;10066;48.108;11.448;2024-03-25T02:43:31;3.50;99.90
19813;DHT22;10066;48.108;11.448;2024-03-25T02:45:57;3.50;99.90
19813;DHT22;10066;48.108;11.448;2024-03-25T02:48:24;3.50;99.90
19813;DHT22;10066;48.108;11.448;2024-03-25T02:50:50;3.50;99.90
19813;DHT22;10066;48.108;11.448;2024-03-25T02:53:18;3.50;99.90
19813;DHT22;10066;48.108;11.448;2024-03-25T02:55:44;3.50;99.90
19813;DHT22;10066;48.108;11.448;2024-03-25T02:58:11;3.50;99.90
19813;DHT22;10066;48.108;11.448;2024-03-25T03:00:38;3.50;99.90
19813;DHT22;10066;48.108;11.448;2024-03-25T03:03:05;3.50;99.90
19813;DHT22;10066;48.108;11.448;2024-03-25T03:05:31;3.50;99.90
19813;DHT22;10066;48.108;11.448;2024-03-25T03:07:58;3.50;99.90
19813;DHT22;10066;48.108;11.448;2024-03-25T03:10:24;3.50;99.90
19813;DHT22;10066;48.108;11.448;2024-03-25T03:12:51;3.50;99.90
19813;DHT22;10066;48.108;11.448;2024-03-25T03:15:17;3.50;99.90
19813;DHT22;10066;48.108;11.448;2024-03-25T03:17:45;3.50;99.90
19813;DHT22;10066;48.108;11.448;2024-03-25T03:20:11;3.50;99.90
19813;DHT22;10066;48.108;11.448;2024-03-25T03:22:38;3.60;99.90
19813;DHT22;10066;48.108;11.448;2024-03-25T03:25:04;3.60;99.90
19813;DHT22;10066;48.108;11.448;2024-03-25T03:27:31;3.60;99.90
19813;DHT22;10066;48.108;11.448;2024-03-25T03:29:57;3.60;99.90
19813;DHT22;10066;48.108;11.448;2024-03-25T03:32:24;3.60;99.90
19813;DHT22;10066;48.108;11.448;2024-03-25T03:34:52;3.60;99.90
19813;DHT22;10066;48.108;11.448;2024-03-25T03:37:19;3.60;99.90
19813;DHT22;10066;48.108;11.448;2024-03-25T03:39:45;3.60;99.90
19813;DHT22;10066;48.108;11.448;2024-03-25T03:42:11;3.60;99.90
19813;DHT22;10066;48.108;11.448;2024-03-25T03:44:37;3.60;99.90
19813;DHT22;10066;48.108;11.448;2024-03-25T03:47:04;3.60;99.90
19813;DHT22;10066;48.108;11.448;2024-03-25T03:49:30;3.60;99.90
19813;DHT22;10066;48.108;11.448;2024-03-25T03:51:59;3.60;99.90
19813;DHT22;10066;48.108;11.448;2024-03-25T03:54:25;3.60;99.90
19813;DHT22;10066;48.108;11.448;2024-03-25T03:56:52;3.60;99.90
19813;DHT22;10066;48.108;11.448;2024-03-25T03:59:17;3.50;99.90
19813;DHT22;10066;48.108;11.448;2024-03-25T04:01:44;3.50;99.90
19813;DHT22;10066;48.108;11.448;2024-03-25T04:04:10;3.40;99.90
19813;DHT22;10066;48.108;11.448;2024-03-25T04:06:37;3.40;99.90
19813;DHT22;10066;48.108;11.448;2024-03-25T04:09:07;3.20;99.90
19813;DHT22;10066;48.108;11.448;2024-03-25T04:11:35;3.10;99.90
19813;DHT22;10066;48.108;11.448;2024-03-25T04:14:01;3.00;99.90
19813;DHT22;10066;48.108;11.448;2024-03-25T04:16:28;2.90;99.90
19813;DHT22;10066;48.108;11.448;2024-03-25T04:18:56;2.80;99.90
19813;DHT22;10066;48.108;11.448;2024-03-25T04:21:23;2.80;99.90
19813;DHT22;10066;48.108;11.448;2024-03-25T04:23:49;2.70;99.90
19813;DHT22;10066;48.108;11.448;2024-03-25T04:26:17;2.60;99.90
19813;DHT22;10066;48.108;11.448;2024-03-25T04:28:43;2.50;99.90
19813;DHT22;10066;48.108;11.448;2024-03-25T04:31:10;2.50;99.90
19813;DHT22;10066;48.108;11.448;2024-03-25T04:33:36;2.40;99.90
19813;DHT22;10066;48.108;11.448;2024-03-25T04:36:04;2.40;99.90
19813;DHT22;10066;48.108;11.448;2024-03-25T04:38:30;2.30;99.90
19813;DHT22;10066;48.108;11.448;2024-03-25T04:40:57;2.30;99.90
19813;DHT22;10066;48.108;11.448;2024-03-25T04:43:24;2.30;99.90
19813;DHT22;10066;48.108;11.448;2024-03-25T04:45:51;2.30;99.90
19813;DHT22;10066;48.108;11.448;2024-03-25T04:48:17;2.20;99.90
19813;DHT22;10066;48.108;11.448;2024-03-25T04:50:43;2.20;99.90
19813;DHT22;10066;48.108;11.448;2024-03-25T04:53:09;2.10;99.90
19813;DHT22;10066;48.108;11.448;2024-03-25T04:55:36;2.10;99.90
19813;DHT22;10066;48.108;11.448;2024-03-25T04:58:02;2.10;99.90
19813;DHT22;10066;48.108;11.448;2024-03-25T05:00:30;2.10;99.90
19813;DHT22;10066;48.108;11.448;2024-03-25T05:02:56;2.10;99.90
19813;DHT22;10066;48.108;11.448;2024-03-25T05:05:22;2.10;99.90
19813;DHT22;10066;48.108;11.448;2024-03-25T05:07:48;2.10;99.90
19813;DHT22;10066;48.108;11.448;2024-03-25T05:10:14;2.10;99.90
19813;DHT22;10066;48.108;11.448;2024-03-25T05:12:40;2.10;99.90
19813;DHT22;10066;48.108;11.448;2024-03-25T05:15:07;2.10;99.90
19813;DHT22;10066;48.108;11.448;2024-03-25T05:17:34;2.10;99.90
19813;DHT22;10066;48.108;11.448;2024-03-25T05:20:01;2.00;99.90
19813;DHT22;10066;48.108;11.448;2024-03-25T05:22:27;2.00;99.90
19813;DHT22;10066;48.108;11.448;2024-03-25T05:24:53;2.10;99.90
19813;DHT22;10066;48.108;11.448;2024-03-25T05:27:20;2.10;99.90
19813;DHT22;10066;48.108;11.448;2024-03-25T05:29:46;2.20;99.90
19813;DHT22;10066;48.108;11.448;2024-03-25T05:32:12;2.20;99.90
19813;DHT22;10066;48.108;11.448;2024-03-25T05:34:39;2.20;99.90
19813;DHT22;10066;48.108;11.448;2024-03-25T05:37:06;2.40;99.90
19813;DHT22;10066;48.108;11.448;2024-03-25T05:39:32;2.40;99.90
19813;DHT22;10066;48.108;11.448;2024-03-25T05:41:58;2.40;99.90
19813;DHT22;10066;48.108;11.448;2024-03-25T05:44:25;2.50;99.90
19813;DHT22;10066;48.108;11.448;2024-03-25T05:46:51;2.50;99.90
19813;DHT22;10066;48.108;11.448;2024-03-25T05:49:17;2.60;99.90
19813;DHT22;10066;48.108;11.448;2024-03-25T05:51:45;2.60;99.90
19813;DHT22;10066;48.108;11.448;2024-03-25T05:54:11;2.60;99.90
19813;DHT22;10066;48.108;11.448;2024-03-25T05:56:37;2.70;99.90
19813;DHT22;10066;48.108;11.448;2024-03-25T05:59:03;2.80;99.90
19813;DHT22;10066;48.108;11.448;2024-03-25T06:01:29;2.80;99.90
19813;DHT22;10066;48.108;11.448;2024-03-25T06:03:56;2.90;99.90
19813;DHT22;10066;48.108;11.448;2024-03-25T06:06:22;3.00;99.90
19813;DHT22;10066;48.108;11.448;2024-03-25T06:08:50;3.10;99.90
19813;DHT22;10066;48.108;11.448;2024-03-25T06:11:16;3.20;99.90
19813;DHT22;10066;48.108;11.448;2024-03-25T06:13:42;3.30;99.90
19813;DHT22;10066;48.108;11.448;2024-03-25T06:16:11;3.40;99.90
19813;DHT22;10066;48.108;11.448;2024-03-25T06:18:37;3.50;99.90
19813;DHT22;10066;48.108;11.448;2024-03-25T06:21:03;3.60;99.90
19813;DHT22;10066;48.108;11.448;2024-03-25T06:23:30;3.70;99.90
19813;DHT22;10066;48.108;11.448;2024-03-25T06:25:58;3.70;99.90
19813;DHT22;10066;48.108;11.448;2024-03-25T06:28:24;3.80;99.90
19813;DHT22;10066;48.108;11.448;2024-03-25T06:30:51;4.00;99.90
19813;DHT22;10066;48.108;11.448;2024-03-25T06:33:37;4.10;99.90
19813;DHT22;10066;48.108;11.448;2024-03-25T06:36:21;4.20;99.90
19813;DHT22;10066;48.108;11.448;2024-03-25T06:38:48;4.30;99.90
19813;DHT22;10066;48.108;11.448;2024-03-25T06:41:16;4.40;99.90
19813;DHT22;10066;48.108;11.448;2024-03-25T06:43:42;4.50;99.90
19813;DHT22;10066;48.108;11.448;2024-03-25T06:46:08;4.60;99.90
19813;DHT22;10066;48.108;11.448;2024-03-25T06:48:35;4.60;99.90
19813;DHT22;10066;48.108;11.448;2024-03-25T06:51:01;4.70;99.90
19813;DHT22;10066;48.108;11.448;2024-03-25T06:53:28;4.90;99.90
19813;DHT22;10066;48.108;11.448;2024-03-25T06:55:56;5.00;99.90
19813;DHT22;10066;48.108;11.448;2024-03-25T06:58:24;5.20;99.90
19813;DHT22;10066;48.108;11.448;2024-03-25T07:00:51;5.40;99.90
19813;DHT22;10066;48.108;11.448;2024-03-25T07:03:18;5.50;99.90
19813;DHT22;10066;48.108;11.448;2024-03-25T07:05:45;5.70;99.90
19813;DHT22;10066;48.108;11.448;2024-03-25T07:08:12;5.80;99.90
19813;DHT22;10066;48.108;11.448;2024-03-25T07:10:38;5.90;99.90
19813;DHT22;10066;48.108;11.448;2024-03-25T07:13:04;5.90;99.90
19813;DHT22;10066;48.108;11.448;2024-03-25T07:15:32;6.00;99.90
19813;DHT22;10066;48.108;11.448;2024-03-25T07:20:25;6.10;99.90
19813;DHT22;10066;48.108;11.448;2024-03-25T07:22:51;6.30;99.90
19813;DHT22;10066;48.108;11.448;2024-03-25T07:25:17;6.40;99.90
19813;DHT22;10066;48.108;11.448;2024-03-25T07:27:43;6.50;99.90
19813;DHT22;10066;48.108;11.448;2024-03-25T07:30:10;6.40;99.90
19813;DHT22;10066;48.108;11.448;2024-03-25T07:32:37;6.40;99.90
19813;DHT22;10066;48.108;11.448;2024-03-25T07:35:04;6.30;99.90
19813;DHT22;10066;48.108;11.448;2024-03-25T07:37:30;6.20;99.90
19813;DHT22;10066;48.108;11.448;2024-03-25T07:39:56;6.20;99.90
19813;DHT22;10066;48.108;11.448;2024-03-25T07:42:22;6.20;99.90
19813;DHT22;10066;48.108;11.448;2024-03-25T07:44:47;6.20;99.90
19813;DHT22;10066;48.108;11.448;2024-03-25T07:47:13;6.20;99.90
19813;DHT22;10066;48.108;11.448;2024-03-25T07:49:41;6.20;99.90
19813;DHT22;10066;48.108;11.448;2024-03-25T07:54:33;6.20;99.90
19813;DHT22;10066;48.108;11.448;2024-03-25T07:56:59;6.20;99.90
19813;DHT22;10066;48.108;11.448;2024-03-25T07:59:25;6.20;99.90
19813;DHT22;10066;48.108;11.448;2024-03-25T08:01:51;6.20;99.90
19813;DHT22;10066;48.108;11.448;2024-03-25T08:04:17;6.30;99.90
19813;DHT22;10066;48.108;11.448;2024-03-25T08:06:44;6.30;99.90
19813;DHT22;10066;48.108;11.448;2024-03-25T08:09:10;6.30;99.90
19813;DHT22;10066;48.108;11.448;2024-03-25T08:11:36;6.40;99.90
19813;DHT22;10066;48.108;11.448;2024-03-25T08:14:03;6.50;99.90
19813;DHT22;10066;48.108;11.448;2024-03-25T08:16:29;6.50;99.90
19813;DHT22;10066;48.108;11.448;2024-03-25T08:18:55;6.60;99.90
19813;DHT22;10066;48.108;11.448;2024-03-25T08:21:22;6.70;99.90
19813;DHT22;10066;48.108;11.448;2024-03-25T08:23:50;6.70;99.90
19813;DHT22;10066;48.108;11.448;2024-03-25T08:26:17;6.80;99.90
19813;DHT22;10066;48.108;11.448;2024-03-25T08:28:43;7.00;99.90
19813;DHT22;10066;48.108;11.448;2024-03-25T08:31:09;7.10;99.90
19813;DHT22;10066;48.108;11.448;2024-03-25T08:33:36;7.20;99.90
19813;DHT22;10066;48.108;11.448;2024-03-25T08:36:02;7.40;99.90
19813;DHT22;10066;48.108;11.448;2024-03-25T08:38:28;7.40;99.90
19813;DHT22;10066;48.108;11.448;2024-03-25T08:40:56;7.50;99.90
19813;DHT22;10066;48.108;11.448;2024-03-25T08:43:23;7.60;99.90
19813;DHT22;10066;48.108;11.448;2024-03-25T08:45:49;7.70;99.90
19813;DHT22;10066;48.108;11.448;2024-03-25T08:48:15;7.80;99.90
19813;DHT22;10066;48.108;11.448;2024-03-25T08:50:42;7.90;99.90
19813;DHT22;10066;48.108;11.448;2024-03-25T08:53:08;7.90;99.90
19813;DHT22;10066;48.108;11.448;2024-03-25T08:55:34;7.90;99.90
19813;DHT22;10066;48.108;11.448;2024-03-25T08:58:02;8.00;99.90
19813;DHT22;10066;48.108;11.448;2024-03-25T09:00:29;8.00;99.90
19813;DHT22;10066;48.108;11.448;2024-03-25T09:02:55;8.00;99.90
19813;DHT22;10066;48.108;11.448;2024-03-25T09:05:22;8.00;99.90
19813;DHT22;10066;48.108;11.448;2024-03-25T09:07:50;8.20;99.90
19813;DHT22;10066;48.108;11.448;2024-03-25T09:10:16;8.30;99.90
19813;DHT22;10066;48.108;11.448;2024-03-25T09:13:03;8.30;99.90
19813;DHT22;10066;48.108;11.448;2024-03-25T09:15:29;8.40;99.90
19813;DHT22;10066;48.108;11.448;2024-03-25T09:20:22;8.50;93.70
19813;DHT22;10066;48.108;11.448;2024-03-25T09:22:48;8.60;97.60
19813;DHT22;10066;48.108;11.448;2024-03-25T09:25:15;8.50;99.90
19813;DHT22;10066;48.108;11.448;2024-03-25T09:27:45;8.60;99.90
19813;DHT22;10066;48.108;11.448;2024-03-25T09:30:13;8.70;99.90
19813;DHT22;10066;48.108;11.448;2024-03-25T09:32:40;8.60;99.90
19813;DHT22;10066;48.108;11.448;2024-03-25T09:35:06;8.60;99.90
19813;DHT22;10066;48.108;11.448;2024-03-25T09:37:33;8.50;99.80
19813;DHT22;10066;48.108;11.448;2024-03-25T09:39:59;8.70;99.90
19813;DHT22;10066;48.108;11.448;2024-03-25T09:42:26;8.90;99.90
19813;DHT22;10066;48.108;11.448;2024-03-25T09:44:54;9.00;92.10
19813;DHT22;10066;48.108;11.448;2024-03-25T09:47:22;9.00;99.90
19813;DHT22;10066;48.108;11.448;2024-03-25T09:49:49;9.00;92.40
19813;DHT22;10066;48.108;11.448;2024-03-25T09:52:16;9.00;98.30
19813;DHT22;10066;48.108;11.448;2024-03-25T09:54:42;9.10;99.90
19813;DHT22;10066;48.108;11.448;2024-03-25T09:57:08;9.30;99.90
19813;DHT22;10066;48.108;11.448;2024-03-25T09:59:35;9.30;96.10
19813;DHT22;10066;48.108;11.448;2024-03-25T10:02:01;9.40;99.90
19813;DHT22;10066;48.108;11.448;2024-03-25T10:04:29;9.30;93.00
19813;DHT22;10066;48.108;11.448;2024-03-25T10:06:56;9.20;94.70
19813;DHT22;10066;48.108;11.448;2024-03-25T10:09:22;9.00;96.90
19813;DHT22;10066;48.108;11.448;2024-03-25T10:11:49;8.90;99.90
19813;DHT22;10066;48.108;11.448;2024-03-25T10:14:15;8.80;99.90
19813;DHT22;10066;48.108;11.448;2024-03-25T10:16:42;8.70;99.90
19813;DHT22;10066;48.108;11.448;2024-03-25T10:19:08;8.70;99.90
19813;DHT22;10066;48.108;11.448;2024-03-25T10:21:36;8.60;99.90
19813;DHT22;10066;48.108;11.448;2024-03-25T10:24:05;8.60;98.60
19813;DHT22;10066;48.108;11.448;2024-03-25T10:26:32;8.50;99.70
19813;DHT22;10066;48.108;11.448;2024-03-25T10:29:00;8.60;99.90
19813;DHT22;10066;48.108;11.448;2024-03-25T10:31:26;8.60;94.30
19813;DHT22;10066;48.108;11.448;2024-03-25T10:33:53;8.50;92.10
19813;DHT22;10066;48.108;11.448;2024-03-25T10:36:23;8.50;90.20
19813;DHT22;10066;48.108;11.448;2024-03-25T10:38:55;8.30;78.40
19813;DHT22;10066;48.108;11.448;2024-03-25T10:41:22;8.30;89.10
19813;DHT22;10066;48.108;11.448;2024-03-25T10:43:49;8.40;91.50
19813;DHT22;10066;48.108;11.448;2024-03-25T10:46:18;8.40;87.00
19813;DHT22;10066;48.108;11.448;2024-03-25T10:48:52;8.40;88.60
19813;DHT22;10066;48.108;11.448;2024-03-25T10:51:21;8.40;83.70
19813;DHT22;10066;48.108;11.448;2024-03-25T10:53:51;8.40;88.00
19813;DHT22;10066;48.108;11.448;2024-03-25T10:56:20;8.50;91.20
19813;DHT22;10066;48.108;11.448;2024-03-25T10:58:48;8.60;94.30
19813;DHT22;10066;48.108;11.448;2024-03-25T11:01:16;8.80;99.50
19813;DHT22;10066;48.108;11.448;2024-03-25T11:03:44;8.90;99.90
19813;DHT22;10066;48.108;11.448;2024-03-25T11:06:11;9.00;95.10
19813;DHT22;10066;48.108;11.448;2024-03-25T11:08:37;9.10;92.50
19813;DHT22;10066;48.108;11.448;2024-03-25T11:11:05;9.20;97.20
19813;DHT22;10066;48.108;11.448;2024-03-25T11:13:32;9.30;92.90
19813;DHT22;10066;48.108;11.448;2024-03-25T11:15:59;9.30;93.40
19813;DHT22;10066;48.108;11.448;2024-03-25T11:18:25;9.40;99.70
19813;DHT22;10066;48.108;11.448;2024-03-25T11:21:02;9.50;99.90
19813;DHT22;10066;48.108;11.448;2024-03-25T11:23:35;9.50;98.10
19813;DHT22;10066;48.108;11.448;2024-03-25T11:26:02;9.50;95.00
19813;DHT22;10066;48.108;11.448;2024-03-25T11:28:32;9.40;90.60
19813;DHT22;10066;48.108;11.448;2024-03-25T11:30:58;9.30;85.70
19813;DHT22;10066;48.108;11.448;2024-03-25T11:33:24;9.30;85.40
19813;DHT22;10066;48.108;11.448;2024-03-25T11:35:50;9.30;92.80
19813;DHT22;10066;48.108;11.448;2024-03-25T11:38:17;9.30;95.60
19813;DHT22;10066;48.108;11.448;2024-03-25T11:40:45;9.30;92.60
19813;DHT22;10066;48.108;11.448;2024-03-25T11:43:18;9.20;84.30
19813;DHT22;10066;48.108;11.448;2024-03-25T11:45:48;9.20;93.80
19813;DHT22;10066;48.108;11.448;2024-03-25T11:48:15;9.20;99.70
19813;DHT22;10066;48.108;11.448;2024-03-25T11:50:44;9.10;95.80
19813;DHT22;10066;48.108;11.448;2024-03-25T11:53:10;9.10;93.00
19813;DHT22;10066;48.108;11.448;2024-03-25T11:55:37;9.20;99.90
19813;DHT22;10066;48.108;11.448;2024-03-25T11:58:03;9.30;99.90
19813;DHT22;10066;48.108;11.448;2024-03-25T12:00:29;9.40;96.90
19813;DHT22;10066;48.108;11.448;2024-03-25T12:02:57;9.50;99.90
19813;DHT22;10066;48.108;11.448;2024-03-25T12:05:24;9.50;97.20
19813;DHT22;10066;48.108;11.448;2024-03-25T12:07:50;9.50;99.60
19813;DHT22;10066;48.108;11.448;2024-03-25T12:10:16;9.50;79.80
19813;DHT22;10066;48.108;11.448;2024-03-25T12:13:00;9.50;87.00
19813;DHT22;10066;48.108;11.448;2024-03-25T12:15:27;9.50;86.00
19813;DHT22;10066;48.108;11.448;2024-03-25T12:17:53;9.60;91.30
19813;DHT22;10066;48.108;11.448;2024-03-25T12:20:21;9.60;97.20
19813;DHT22;10066;48.108;11.448;2024-03-25T12:22:48;9.70;96.90
19813;DHT22;10066;48.108;11.448;2024-03-25T12:25:15;9.80;99.30
19813;DHT22;10066;48.108;11.448;2024-03-25T12:27:41;9.90;97.50
19813;DHT22;10066;48.108;11.448;2024-03-25T12:30:12;9.90;99.00
19813;DHT22;10066;48.108;11.448;2024-03-25T12:32:39;10.00;98.60
19813;DHT22;10066;48.108;11.448;2024-03-25T12:35:08;10.00;98.90
19813;DHT22;10066;48.108;11.448;2024-03-25T12:37:36;10.10;99.00
19813;DHT22;10066;48.108;11.448;2024-03-25T12:40:04;10.20;99.90
19813;DHT22;10066;48.108;11.448;2024-03-25T12:42:31;10.20;99.90
19813;DHT22;10066;48.108;11.448;2024-03-25T12:44:58;10.20;99.90
19813;DHT22;10066;48.108;11.448;2024-03-25T12:47:24;10.30;99.90
19813;DHT22;10066;48.108;11.448;2024-03-25T12:49:50;10.30;99.90
19813;DHT22;10066;48.108;11.448;2024-03-25T12:52:17;10.30;99.40
19813;DHT22;10066;48.108;11.448;2024-03-25T12:54:44;10.30;93.90
19813;DHT22;10066;48.108;11.448;2024-03-25T12:57:11;10.30;95.20
19813;DHT22;10066;48.108;11.448;2024-03-25T12:59:37;10.40;97.60
19813;DHT22;10066;48.108;11.448;2024-03-25T13:02:04;10.40;98.20
19813;DHT22;10066;48.108;11.448;2024-03-25T13:04:30;10.40;97.10
19813;DHT22;10066;48.108;11.448;2024-03-25T13:06:56;10.30;97.60
19813;DHT22;10066;48.108;11.448;2024-03-25T13:09:23;10.40;98.50
19813;DHT22;10066;48.108;11.448;2024-03-25T13:11:51;10.40;99.30
19813;DHT22;10066;48.108;11.448;2024-03-25T13:14:17;10.40;98.00
19813;DHT22;10066;48.108;11.448;2024-03-25T13:16:43;10.40;99.90
19813;DHT22;10066;48.108;11.448;2024-03-25T13:19:10;10.40;98.40
19813;DHT22;10066;48.108;11.448;2024-03-25T13:21:36;10.40;98.50
19813;DHT22;10066;48.108;11.448;2024-03-25T13:24:02;10.40;97.80
19813;DHT22;10066;48.108;11.448;2024-03-25T13:26:28;10.40;97.20
19813;DHT22;10066;48.108;11.448;2024-03-25T13:28:56;10.40;95.40
19813;DHT22;10066;48.108;11.448;2024-03-25T13:31:23;10.40;97.20
19813;DHT22;10066;48.108;11.448;2024-03-25T13:33:49;10.30;97.00
19813;DHT22;10066;48.108;11.448;2024-03-25T13:36:15;10.20;84.80
19813;DHT22;10066;48.108;11.448;2024-03-25T13:38:41;10.30;93.80
19813;DHT22;10066;48.108;11.448;2024-03-25T13:41:07;10.30;91.10
19813;DHT22;10066;48.108;11.448;2024-03-25T13:43:33;10.30;96.50
19813;DHT22;10066;48.108;11.448;2024-03-25T13:46:03;10.40;98.30
19813;DHT22;10066;48.108;11.448;2024-03-25T13:48:29;10.40;98.80
19813;DHT22;10066;48.108;11.448;2024-03-25T13:50:55;10.50;96.60
19813;DHT22;10066;48.108;11.448;2024-03-25T13:53:22;10.50;94.00
19813;DHT22;10066;48.108;11.448;2024-03-25T13:55:48;10.40;90.10
19813;DHT22;10066;48.108;11.448;2024-03-25T13:58:14;10.30;75.80
19813;DHT22;10066;48.108;11.448;2024-03-25T14:00:40;10.40;92.50
19813;DHT22;10066;48.108;11.448;2024-03-25T14:03:08;10.40;93.10
19813;DHT22;10066;48.108;11.448;2024-03-25T14:05:34;10.30;82.00
19813;DHT22;10066;48.108;11.448;2024-03-25T14:08:00;10.30;91.10
19813;DHT22;10066;48.108;11.448;2024-03-25T14:10:26;10.30;93.80
19813;DHT22;10066;48.108;11.448;2024-03-25T14:12:52;10.30;90.50
19813;DHT22;10066;48.108;11.448;2024-03-25T14:15:19;10.20;90.80
19813;DHT22;10066;48.108;11.448;2024-03-25T14:17:45;10.10;73.00
19813;DHT22;10066;48.108;11.448;2024-03-25T14:20:13;10.10;87.70
19813;DHT22;10066;48.108;11.448;2024-03-25T14:22:39;10.00;89.40
19813;DHT22;10066;48.108;11.448;2024-03-25T14:25:06;10.00;85.70
19813;DHT22;10066;48.108;11.448;2024-03-25T14:27:32;9.90;86.70
19813;DHT22;10066;48.108;11.448;2024-03-25T14:29:59;9.90;85.30
19813;DHT22;10066;48.108;11.448;2024-03-25T14:32:25;9.90;89.70
19813;DHT22;10066;48.108;11.448;2024-03-25T14:34:51;9.90;83.20
19813;DHT22;10066;48.108;11.448;2024-03-25T14:37:19;9.90;85.50
19813;DHT22;10066;48.108;11.448;2024-03-25T14:39:45;9.90;87.40
19813;DHT22;10066;48.108;11.448;2024-03-25T14:42:12;9.90;90.60
19813;DHT22;10066;48.108;11.448;2024-03-25T14:44:38;9.90;92.70
19813;DHT22;10066;48.108;11.448;2024-03-25T14:47:04;10.00;94.60
19813;DHT22;10066;48.108;11.448;2024-03-25T14:49:31;10.00;93.60
19813;DHT22;10066;48.108;11.448;2024-03-25T14:51:57;10.10;92.80
19813;DHT22;10066;48.108;11.448;2024-03-25T14:54:33;10.00;89.50
19813;DHT22;10066;48.108;11.448;2024-03-25T14:56:59;10.00;81.60
19813;DHT22;10066;48.108;11.448;2024-03-25T14:59:26;10.00;74.50
19813;DHT22;10066;48.108;11.448;2024-03-25T15:01:53;10.10;90.00
19813;DHT22;10066;48.108;11.448;2024-03-25T15:04:19;10.10;92.40
19813;DHT22;10066;48.108;11.448;2024-03-25T15:06:45;10.20;91.90
19813;DHT22;10066;48.108;11.448;2024-03-25T15:09:11;10.20;94.60
19813;DHT22;10066;48.108;11.448;2024-03-25T15:11:39;10.20;91.50
19813;DHT22;10066;48.108;11.448;2024-03-25T15:14:05;10.10;81.40
19813;DHT22;10066;48.108;11.448;2024-03-25T15:16:31;10.10;91.20
19813;DHT22;10066;48.108;11.448;2024-03-25T15:18:57;10.20;94.90
19813;DHT22;10066;48.108;11.448;2024-03-25T15:21:23;10.10;92.90
19813;DHT22;10066;48.108;11.448;2024-03-25T15:23:49;10.10;94.30
19813;DHT22;10066;48.108;11.448;2024-03-25T15:26:16;10.10;95.90
19813;DHT22;10066;48.108;11.448;2024-03-25T15:28:43;10.00;95.30
19813;DHT22;10066;48.108;11.448;2024-03-25T15:31:10;10.00;92.60
19813;DHT22;10066;48.108;11.448;2024-03-25T15:33:36;10.00;94.50